sensor_id;sensor_type;location;lat;lon;timestamp;pressure;altitude;pressure_sealevel;temperature;humidity
51926;BME280;37952;51.938;15.480;2023-09-30T00:00:23;99979.84;;;20.51;60.44
51926;BME280;37952;51.938;15.480;2023-09-30T00:03:46;99976.83;;;20.48;60.55
51926;BME280;37952;51.938;15.480;2023-09-30T00:06:49;99981.48;;;20.48;60.37
51926;BME280;37952;51.938;15.480;2023-09-30T00:09:53;99983.80;;;20.47;60.55
51926;BME280;37952;51.938;15.480;2023-09-30T00:12:58;99991.30;;;20.41;60.70
51926;BME280;37952;51.938;15.480;2023-09-30T00:16:04;99994.59;;;20.35;61.03
51926;BME280;37952;51.938;15.480;2023-09-30T00:19:08;99991.81;;;20.29;61.58
51926;BME280;37952;51.938;15.480;2023-09-30T00:22:12;99998.32;;;20.26;61.46
51926;BME280;37952;51.938;15.480;2023-09-30T00:25:15;100000.46;;;20.19;61.99
51926;BME280;37952;51.938;15.480;2023-09-30T00:28:18;100008.62;;;20.13;62.52
51926;BME280;37952;51.938;15.480;2023-09-30T00:31:21;99999.84;;;20.07;62.10
51926;BME280;37952;51.938;15.480;2023-09-30T00:34:25;100008.54;;;20.04;62.42
51926;BME280;37952;51.938;15.480;2023-09-30T00:37:28;100005.35;;;20.04;62.62
51926;BME280;37952;51.938;15.480;2023-09-30T00:40:30;100007.64;;;20.00;62.56
51926;BME280;37952;51.938;15.480;2023-09-30T00:43:33;100005.98;;;19.98;62.43
51926;BME280;37952;51.938;15.480;2023-09-30T00:46:39;100010.16;;;19.92;63.11
51926;BME280;37952;51.938;15.480;2023-09-30T00:49:44;100011.41;;;19.83;63.74
51926;BME280;37952;51.938;15.480;2023-09-30T00:52:48;100015.95;;;19.76;63.94
51926;BME280;37952;51.938;15.480;2023-09-30T00:55:52;100027.55;;;19.71;64.24
51926;BME280;37952;51.938;15.480;2023-09-30T00:58:56;100024.41;;;19.66;64.62
51926;BME280;37952;51.938;15.480;2023-09-30T01:01:59;100027.14;;;19.64;64.58
51926;BME280;37952;51.938;15.480;2023-09-30T01:05:03;100028.41;;;19.60;65.08
51926;BME280;37952;51.938;15.480;2023-09-30T01:08:06;100029.73;;;19.57;65.51
51926;BME280;37952;51.938;15.480;2023-09-30T01:11:09;100034.94;;;19.59;65.35
51926;BME280;37952;51.938;15.480;2023-09-30T01:14:25;100041.14;;;19.61;65.28
51926;BME280;37952;51.938;15.480;2023-09-30T01:17:29;100040.85;;;19.61;65.45
51926;BME280;37952;51.938;15.480;2023-09-30T01:20:32;100047.30;;;19.62;65.49
51926;BME280;37952;51.938;15.480;2023-09-30T01:23:35;100053.93;;;19.62;65.41
51926;BME280;37952;51.938;15.480;2023-09-30T01:26:38;100050.16;;;19.59;65.95
51926;BME280;37952;51.938;15.480;2023-09-30T01:29:41;100056.48;;;19.60;66.15
51926;BME280;37952;51.938;15.480;2023-09-30T01:32:44;100061.80;;;19.60;66.22
51926;BME280;37952;51.938;15.480;2023-09-30T01:35:47;100061.48;;;19.60;66.43
51926;BME280;37952;51.938;15.480;2023-09-30T01:38:50;100064.15;;;19.58;66.69
51926;BME280;37952;51.938;15.480;2023-09-30T01:41:53;100062.00;;;19.54;66.95
51926;BME280;37952;51.938;15.480;2023-09-30T01:44:56;100066.52;;;19.56;66.73
51926;BME280;37952;51.938;15.480;2023-09-30T01:48:01;100064.69;;;19.58;66.53
51926;BME280;37952;51.938;15.480;2023-09-30T01:51:04;100078.16;;;19.59;66.66
51926;BME280;37952;51.938;15.480;2023-09-30T01:54:07;100076.23;;;19.61;66.39
51926;BME280;37952;51.938;15.480;2023-09-30T01:57:10;100068.02;;;19.61;66.44
51926;BME280;37952;51.938;15.480;2023-09-30T02:00:13;100067.04;;;19.60;66.61
51926;BME280;37952;51.938;15.480;2023-09-30T02:03:16;100063.73;;;19.59;66.25
51926;BME280;37952;51.938;15.480;2023-09-30T02:06:20;100069.31;;;19.64;65.83
51926;BME280;37952;51.938;15.480;2023-09-30T02:09:23;100071.83;;;19.64;66.00
51926;BME280;37952;51.938;15.480;2023-09-30T02:12:27;100070.22;;;19.62;66.39
51926;BME280;37952;51.938;15.480;2023-09-30T02:15:31;100070.66;;;19.57;66.60
51926;BME280;37952;51.938;15.480;2023-09-30T02:18:34;100067.55;;;19.58;67.11
51926;BME280;37952;51.938;15.480;2023-09-30T02:21:37;100067.73;;;19.60;66.96
51926;BME280;37952;51.938;15.480;2023-09-30T02:24:40;100077.38;;;19.58;67.15
51926;BME280;37952;51.938;15.480;2023-09-30T02:27:44;100073.91;;;19.49;68.09
51926;BME280;37952;51.938;15.480;2023-09-30T02:30:47;100078.50;;;19.44;68.37
51926;BME280;37952;51.938;15.480;2023-09-30T02:33:51;100084.86;;;19.41;68.34
51926;BME280;37952;51.938;15.480;2023-09-30T02:36:54;100102.83;;;19.24;69.67
51926;BME280;37952;51.938;15.480;2023-09-30T02:39:58;100133.14;;;18.97;70.87
51926;BME280;37952;51.938;15.480;2023-09-30T02:43:01;100130.47;;;18.68;71.59
51926;BME280;37952;51.938;15.480;2023-09-30T02:46:04;100141.42;;;18.37;71.31
51926;BME280;37952;51.938;15.480;2023-09-30T02:49:07;100164.91;;;17.91;72.12
51926;BME280;37952;51.938;15.480;2023-09-30T02:52:10;100170.73;;;17.58;72.92
51926;BME280;37952;51.938;15.480;2023-09-30T02:55:13;100167.76;;;17.33;73.40
51926;BME280;37952;51.938;15.480;2023-09-30T02:58:16;100167.17;;;17.19;73.45
51926;BME280;37952;51.938;15.480;2023-09-30T03:01:20;100176.30;;;17.09;73.43
51926;BME280;37952;51.938;15.480;2023-09-30T03:04:24;100179.85;;;16.93;73.38
51926;BME280;37952;51.938;15.480;2023-09-30T03:07:29;100189.45;;;16.85;73.77
51926;BME280;37952;51.938;15.480;2023-09-30T03:10:33;100196.37;;;16.78;73.86
51926;BME280;37952;51.938;15.480;2023-09-30T03:13:36;100200.81;;;16.69;73.99
51926;BME280;37952;51.938;15.480;2023-09-30T03:16:40;100201.92;;;16.64;73.91
51926;BME280;37952;51.938;15.480;2023-09-30T03:19:44;100215.98;;;16.60;73.95
51926;BME280;37952;51.938;15.480;2023-09-30T03:22:47;100220.08;;;16.55;73.95
51926;BME280;37952;51.938;15.480;2023-09-30T03:25:49;100225.77;;;16.55;73.69
51926;BME280;37952;51.938;15.480;2023-09-30T03:28:52;100232.29;;;16.49;74.02
51926;BME280;37952;51.938;15.480;2023-09-30T03:31:56;100231.75;;;16.49;73.93
51926;BME280;37952;51.938;15.480;2023-09-30T03:35:00;100232.50;;;16.44;74.54
51926;BME280;37952;51.938;15.480;2023-09-30T03:38:03;100235.87;;;16.42;74.72
51926;BME280;37952;51.938;15.480;2023-09-30T03:41:07;100246.21;;;16.39;74.83
51926;BME280;37952;51.938;15.480;2023-09-30T03:44:11;100255.55;;;16.33;75.10
51926;BME280;37952;51.938;15.480;2023-09-30T03:47:15;100251.48;;;16.30;75.11
51926;BME280;37952;51.938;15.480;2023-09-30T03:50:17;100255.17;;;16.31;75.02
51926;BME280;37952;51.938;15.480;2023-09-30T03:53:20;100252.58;;;16.32;74.32
51926;BME280;37952;51.938;15.480;2023-09-30T03:56:24;100274.48;;;16.25;73.79
51926;BME280;37952;51.938;15.480;2023-09-30T03:59:26;100270.48;;;16.19;73.37
51926;BME280;37952;51.938;15.480;2023-09-30T04:02:30;100273.37;;;16.16;72.89
51926;BME280;37952;51.938;15.480;2023-09-30T04:05:33;100274.06;;;16.15;72.36
51926;BME280;37952;51.938;15.480;2023-09-30T04:08:40;100278.94;;;16.13;71.93
51926;BME280;37952;51.938;15.480;2023-09-30T04:11:43;100285.52;;;16.06;71.86
51926;BME280;37952;51.938;15.480;2023-09-30T04:14:46;100294.90;;;15.97;71.54
51926;BME280;37952;51.938;15.480;2023-09-30T04:17:49;100299.76;;;15.91;71.70
51926;BME280;37952;51.938;15.480;2023-09-30T04:20:52;100310.23;;;15.86;71.42
51926;BME280;37952;51.938;15.480;2023-09-30T04:23:56;100312.74;;;15.91;71.26
51926;BME280;37952;51.938;15.480;2023-09-30T04:27:00;100320.65;;;15.94;70.79
51926;BME280;37952;51.938;15.480;2023-09-30T04:30:06;100318.86;;;15.97;70.54
51926;BME280;37952;51.938;15.480;2023-09-30T04:33:11;100307.56;;;16.04;70.34
51926;BME280;37952;51.938;15.480;2023-09-30T04:36:16;100323.91;;;16.09;69.86
51926;BME280;37952;51.938;15.480;2023-09-30T04:39:19;100322.50;;;16.01;69.77
51926;BME280;37952;51.938;15.480;2023-09-30T04:42:22;100348.20;;;15.90;69.83
51926;BME280;37952;51.938;15.480;2023-09-30T04:45:27;100359.93;;;15.72;69.76
51926;BME280;37952;51.938;15.480;2023-09-30T04:48:30;100364.00;;;15.58;70.01
51926;BME280;37952;51.938;15.480;2023-09-30T04:51:35;100365.63;;;15.50;70.12
51926;BME280;37952;51.938;15.480;2023-09-30T04:54:38;100374.30;;;15.38;69.92
51926;BME280;37952;51.938;15.480;2023-09-30T04:57:45;100378.39;;;15.25;70.34
51926;BME280;37952;51.938;15.480;2023-09-30T05:00:49;100388.18;;;15.20;70.24
51926;BME280;37952;51.938;15.480;2023-09-30T05:03:52;100386.28;;;15.17;70.22
51926;BME280;37952;51.938;15.480;2023-09-30T05:06:56;100392.83;;;15.09;70.20
51926;BME280;37952;51.938;15.480;2023-09-30T05:09:59;100394.11;;;15.03;70.53
51926;BME280;37952;51.938;15.480;2023-09-30T05:13:10;100408.91;;;14.97;70.54
51926;BME280;37952;51.938;15.480;2023-09-30T05:16:13;100416.41;;;14.91;70.28
51926;BME280;37952;51.938;15.480;2023-09-30T05:19:15;100418.30;;;14.79;70.72
51926;BME280;37952;51.938;15.480;2023-09-30T05:22:19;100427.30;;;14.71;70.68
51926;BME280;37952;51.938;15.480;2023-09-30T05:25:26;100432.72;;;14.62;70.98
51926;BME280;37952;51.938;15.480;2023-09-30T05:28:30;100437.61;;;14.49;71.18
51926;BME280;37952;51.938;15.480;2023-09-30T05:31:34;100442.51;;;14.42;70.97
51926;BME280;37952;51.938;15.480;2023-09-30T05:34:36;100441.34;;;14.36;71.01
51926;BME280;37952;51.938;15.480;2023-09-30T05:37:42;100444.33;;;14.36;70.70
51926;BME280;37952;51.938;15.480;2023-09-30T05:40:46;100442.73;;;14.36;70.46
51926;BME280;37952;51.938;15.480;2023-09-30T05:43:49;100444.10;;;14.34;70.35
51926;BME280;37952;51.938;15.480;2023-09-30T05:46:51;100445.90;;;14.33;70.41
51926;BME280;37952;51.938;15.480;2023-09-30T05:49:54;100455.20;;;14.32;70.30
51926;BME280;37952;51.938;15.480;2023-09-30T05:52:58;100461.59;;;14.19;70.53
51926;BME280;37952;51.938;15.480;2023-09-30T05:56:01;100462.33;;;14.15;70.82
51926;BME280;37952;51.938;15.480;2023-09-30T05:59:06;100456.03;;;14.14;70.93
51926;BME280;37952;51.938;15.480;2023-09-30T06:02:09;100456.67;;;14.15;71.16
51926;BME280;37952;51.938;15.480;2023-09-30T06:05:12;100454.94;;;14.17;71.42
51926;BME280;37952;51.938;15.480;2023-09-30T06:08:14;100471.29;;;14.14;71.60
51926;BME280;37952;51.938;15.480;2023-09-30T06:11:18;100473.52;;;14.09;71.90
51926;BME280;37952;51.938;15.480;2023-09-30T06:14:21;100471.37;;;14.04;72.03
51926;BME280;37952;51.938;15.480;2023-09-30T06:17:24;100471.50;;;13.88;72.56
51926;BME280;37952;51.938;15.480;2023-09-30T06:20:27;100474.45;;;13.86;72.61
51926;BME280;37952;51.938;15.480;2023-09-30T06:23:33;100471.69;;;13.85;72.81
51926;BME280;37952;51.938;15.480;2023-09-30T06:26:36;100472.31;;;13.81;72.88
51926;BME280;37952;51.938;15.480;2023-09-30T06:29:39;100478.01;;;13.80;73.11
51926;BME280;37952;51.938;15.480;2023-09-30T06:32:45;100480.41;;;13.81;73.10
51926;BME280;37952;51.938;15.480;2023-09-30T06:35:48;100493.15;;;13.76;73.13
51926;BME280;37952;51.938;15.480;2023-09-30T06:38:54;100496.79;;;13.72;73.38
51926;BME280;37952;51.938;15.480;2023-09-30T06:41:57;100505.09;;;13.75;73.46
51926;BME280;37952;51.938;15.480;2023-09-30T06:45:04;100509.63;;;13.79;73.46
51926;BME280;37952;51.938;15.480;2023-09-30T06:48:11;100515.65;;;13.84;73.40
51926;BME280;37952;51.938;15.480;2023-09-30T06:51:18;100520.22;;;13.88;73.18
51926;BME280;37952;51.938;15.480;2023-09-30T06:54:21;100519.16;;;13.88;73.18
51926;BME280;37952;51.938;15.480;2023-09-30T06:57:24;100520.95;;;13.88;73.36
51926;BME280;37952;51.938;15.480;2023-09-30T07:00:27;100519.55;;;13.88;73.34
51926;BME280;37952;51.938;15.480;2023-09-30T07:03:30;100523.23;;;13.82;73.35
51926;BME280;37952;51.938;15.480;2023-09-30T07:06:35;100531.77;;;13.82;73.43
51926;BME280;37952;51.938;15.480;2023-09-30T07:09:38;100538.73;;;13.84;73.59
51926;BME280;37952;51.938;15.480;2023-09-30T07:12:41;100552.02;;;13.78;73.89
51926;BME280;37952;51.938;15.480;2023-09-30T07:15:44;100548.96;;;13.79;73.84
51926;BME280;37952;51.938;15.480;2023-09-30T07:18:47;100553.45;;;13.84;73.78
51926;BME280;37952;51.938;15.480;2023-09-30T07:21:50;100555.83;;;13.94;73.47
51926;BME280;37952;51.938;15.480;2023-09-30T07:25:07;100561.38;;;14.05;73.01
51926;BME280;37952;51.938;15.480;2023-09-30T07:28:10;100554.29;;;14.10;72.93
51926;BME280;37952;51.938;15.480;2023-09-30T07:31:14;100573.08;;;14.16;72.71
51926;BME280;37952;51.938;15.480;2023-09-30T07:34:17;100591.61;;;14.06;72.95
51926;BME280;37952;51.938;15.480;2023-09-30T07:37:20;100591.94;;;14.04;73.20
51926;BME280;37952;51.938;15.480;2023-09-30T07:40:23;100602.48;;;14.05;72.92
51926;BME280;37952;51.938;15.480;2023-09-30T07:43:28;100596.48;;;14.05;72.80
51926;BME280;37952;51.938;15.480;2023-09-30T07:46:31;100599.76;;;14.09;72.72
51926;BME280;37952;51.938;15.480;2023-09-30T07:49:34;100603.88;;;14.11;72.18
51926;BME280;37952;51.938;15.480;2023-09-30T07:52:38;100597.11;;;14.20;72.00
51926;BME280;37952;51.938;15.480;2023-09-30T07:55:45;100596.67;;;14.27;71.55
51926;BME280;37952;51.938;15.480;2023-09-30T07:58:48;100607.20;;;14.26;71.63
51926;BME280;37952;51.938;15.480;2023-09-30T08:01:51;100607.83;;;14.25;71.86
51926;BME280;37952;51.938;15.480;2023-09-30T08:04:57;100614.16;;;14.31;71.48
51926;BME280;37952;51.938;15.480;2023-09-30T08:08:02;100619.78;;;14.38;71.36
51926;BME280;37952;51.938;15.480;2023-09-30T08:11:05;100638.27;;;14.38;71.14
51926;BME280;37952;51.938;15.480;2023-09-30T08:14:08;100627.89;;;14.19;71.34
51926;BME280;37952;51.938;15.480;2023-09-30T08:17:12;100624.18;;;14.24;71.21
51926;BME280;37952;51.938;15.480;2023-09-30T08:20:15;100634.44;;;14.30;70.74
51926;BME280;37952;51.938;15.480;2023-09-30T08:23:17;100635.09;;;14.32;70.55
51926;BME280;37952;51.938;15.480;2023-09-30T08:26:20;100630.65;;;14.31;70.47
51926;BME280;37952;51.938;15.480;2023-09-30T08:29:23;100633.67;;;14.23;70.46
51926;BME280;37952;51.938;15.480;2023-09-30T08:32:26;100633.34;;;14.17;70.38
51926;BME280;37952;51.938;15.480;2023-09-30T08:35:30;100634.67;;;14.24;70.50
51926;BME280;37952;51.938;15.480;2023-09-30T08:38:36;100629.55;;;14.32;70.29
51926;BME280;37952;51.938;15.480;2023-09-30T08:41:39;100635.11;;;14.43;69.88
51926;BME280;37952;51.938;15.480;2023-09-30T08:44:42;100619.05;;;14.53;69.66
51926;BME280;37952;51.938;15.480;2023-09-30T08:47:46;100627.45;;;14.63;69.48
51926;BME280;37952;51.938;15.480;2023-09-30T08:50:50;100624.91;;;14.69;69.34
51926;BME280;37952;51.938;15.480;2023-09-30T08:53:54;100625.36;;;14.77;69.05
51926;BME280;37952;51.938;15.480;2023-09-30T08:57:00;100639.36;;;14.85;68.68
51926;BME280;37952;51.938;15.480;2023-09-30T09:00:04;100631.19;;;14.86;68.04
51926;BME280;37952;51.938;15.480;2023-09-30T09:03:08;100629.91;;;14.81;68.04
51926;BME280;37952;51.938;15.480;2023-09-30T09:06:11;100633.60;;;14.81;67.79
51926;BME280;37952;51.938;15.480;2023-09-30T09:09:16;100630.42;;;14.83;67.57
51926;BME280;37952;51.938;15.480;2023-09-30T09:12:20;100642.07;;;14.96;67.52
51926;BME280;37952;51.938;15.480;2023-09-30T09:15:25;100646.65;;;14.99;67.19
51926;BME280;37952;51.938;15.480;2023-09-30T09:18:32;100650.09;;;15.06;67.03
51926;BME280;37952;51.938;15.480;2023-09-30T09:21:36;100648.76;;;15.13;66.78
51926;BME280;37952;51.938;15.480;2023-09-30T09:24:39;100640.63;;;15.18;66.81
51926;BME280;37952;51.938;15.480;2023-09-30T09:27:42;100652.45;;;15.22;66.45
51926;BME280;37952;51.938;15.480;2023-09-30T09:30:45;100653.84;;;15.14;65.76
51926;BME280;37952;51.938;15.480;2023-09-30T09:33:52;100676.80;;;15.08;65.68
51926;BME280;37952;51.938;15.480;2023-09-30T09:36:55;100673.48;;;14.96;65.81
51926;BME280;37952;51.938;15.480;2023-09-30T09:40:00;100661.50;;;15.00;65.96
51926;BME280;37952;51.938;15.480;2023-09-30T09:43:04;100652.37;;;15.07;66.13
51926;BME280;37952;51.938;15.480;2023-09-30T09:46:10;100655.87;;;15.19;65.51
51926;BME280;37952;51.938;15.480;2023-09-30T09:49:18;100648.39;;;15.14;65.58
51926;BME280;37952;51.938;15.480;2023-09-30T09:52:22;100652.41;;;15.23;65.80
51926;BME280;37952;51.938;15.480;2023-09-30T09:55:27;100664.38;;;15.30;65.52
51926;BME280;37952;51.938;15.480;2023-09-30T09:58:33;100657.48;;;15.35;64.75
51926;BME280;37952;51.938;15.480;2023-09-30T10:01:37;100664.98;;;15.37;63.86
51926;BME280;37952;51.938;15.480;2023-09-30T10:04:45;100664.80;;;15.31;63.28
51926;BME280;37952;51.938;15.480;2023-09-30T10:07:53;100653.83;;;15.31;63.69
51926;BME280;37952;51.938;15.480;2023-09-30T10:10:57;100661.20;;;15.38;64.06
51926;BME280;37952;51.938;15.480;2023-09-30T10:14:02;100653.81;;;15.45;64.08
51926;BME280;37952;51.938;15.480;2023-09-30T10:17:10;100649.83;;;15.51;64.22
51926;BME280;37952;51.938;15.480;2023-09-30T10:20:13;100661.64;;;15.58;63.83
51926;BME280;37952;51.938;15.480;2023-09-30T10:23:20;100659.89;;;15.52;63.69
51926;BME280;37952;51.938;15.480;2023-09-30T10:26:24;100653.43;;;15.62;63.77
51926;BME280;37952;51.938;15.480;2023-09-30T10:29:39;100662.61;;;15.70;63.51
51926;BME280;37952;51.938;15.480;2023-09-30T10:35:53;100658.88;;;15.70;63.43
51926;BME280;37952;51.938;15.480;2023-09-30T10:38:56;100660.36;;;15.77;63.81
51926;BME280;37952;51.938;15.480;2023-09-30T10:42:00;100651.38;;;15.86;63.90
51926;BME280;37952;51.938;15.480;2023-09-30T10:45:04;100643.20;;;15.97;63.47
51926;BME280;37952;51.938;15.480;2023-09-30T10:51:29;100650.92;;;16.17;62.52
51926;BME280;37952;51.938;15.480;2023-09-30T10:54:33;100655.23;;;16.19;61.72
51926;BME280;37952;51.938;15.480;2023-09-30T10:57:36;100647.91;;;16.22;62.10
51926;BME280;37952;51.938;15.480;2023-09-30T11:00:55;100654.73;;;16.26;62.08
51926;BME280;37952;51.938;15.480;2023-09-30T11:04:00;100652.15;;;16.32;62.15
51926;BME280;37952;51.938;15.480;2023-09-30T11:07:08;100646.15;;;16.44;61.52
51926;BME280;37952;51.938;15.480;2023-09-30T11:10:11;100662.23;;;16.51;61.03
51926;BME280;37952;51.938;15.480;2023-09-30T11:13:15;100660.71;;;16.52;60.86
51926;BME280;37952;51.938;15.480;2023-09-30T11:16:18;100665.91;;;16.52;59.69
51926;BME280;37952;51.938;15.480;2023-09-30T11:19:21;100661.38;;;16.43;59.19
51926;BME280;37952;51.938;15.480;2023-09-30T11:22:25;100651.62;;;16.35;59.47
51926;BME280;37952;51.938;15.480;2023-09-30T11:25:27;100651.61;;;16.27;59.51
51926;BME280;37952;51.938;15.480;2023-09-30T11:28:42;100661.44;;;16.27;59.45
51926;BME280;37952;51.938;15.480;2023-09-30T11:31:47;100642.17;;;16.25;58.98
51926;BME280;37952;51.938;15.480;2023-09-30T11:34:50;100651.02;;;16.34;58.39
51926;BME280;37952;51.938;15.480;2023-09-30T11:37:53;100649.33;;;16.38;58.93
51926;BME280;37952;51.938;15.480;2023-09-30T11:41:06;100655.57;;;16.32;58.53
51926;BME280;37952;51.938;15.480;2023-09-30T11:44:11;100649.89;;;16.31;58.89
51926;BME280;37952;51.938;15.480;2023-09-30T11:47:16;100659.17;;;16.37;58.79
51926;BME280;37952;51.938;15.480;2023-09-30T11:50:45;100652.20;;;16.40;57.94
51926;BME280;37952;51.938;15.480;2023-09-30T11:53:48;100650.02;;;16.43;57.43
51926;BME280;37952;51.938;15.480;2023-09-30T11:56:51;100657.52;;;16.55;57.30
51926;BME280;37952;51.938;15.480;2023-09-30T11:59:54;100653.98;;;16.67;56.85
51926;BME280;37952;51.938;15.480;2023-09-30T12:02:57;100653.25;;;16.80;57.29
51926;BME280;37952;51.938;15.480;2023-09-30T12:06:00;100650.25;;;16.94;57.01
51926;BME280;37952;51.938;15.480;2023-09-30T12:09:03;100652.64;;;17.01;56.58
51926;BME280;37952;51.938;15.480;2023-09-30T12:12:07;100659.38;;;16.91;56.80
51926;BME280;37952;51.938;15.480;2023-09-30T12:15:14;100645.02;;;16.80;57.19
51926;BME280;37952;51.938;15.480;2023-09-30T12:18:18;100643.67;;;16.94;57.50
51926;BME280;37952;51.938;15.480;2023-09-30T12:21:26;100638.75;;;17.11;56.92
51926;BME280;37952;51.938;15.480;2023-09-30T12:24:29;100630.28;;;17.32;57.15
51926;BME280;37952;51.938;15.480;2023-09-30T12:27:31;100630.11;;;17.55;56.17
51926;BME280;37952;51.938;15.480;2023-09-30T12:30:34;100633.52;;;17.69;54.47
51926;BME280;37952;51.938;15.480;2023-09-30T12:33:37;100630.61;;;17.79;54.63
51926;BME280;37952;51.938;15.480;2023-09-30T12:36:46;100632.29;;;17.92;54.19
51926;BME280;37952;51.938;15.480;2023-09-30T12:39:50;100628.12;;;18.07;54.02
51926;BME280;37952;51.938;15.480;2023-09-30T12:42:54;100630.48;;;18.25;53.69
51926;BME280;37952;51.938;15.480;2023-09-30T12:45:58;100623.89;;;18.36;53.10
51926;BME280;37952;51.938;15.480;2023-09-30T12:49:06;100620.81;;;18.32;51.99
51926;BME280;37952;51.938;15.480;2023-09-30T12:52:09;100616.45;;;18.36;53.41
51926;BME280;37952;51.938;15.480;2023-09-30T12:55:13;100614.28;;;18.43;53.40
51926;BME280;37952;51.938;15.480;2023-09-30T12:58:15;100614.35;;;18.51;53.76
51926;BME280;37952;51.938;15.480;2023-09-30T13:01:18;100614.77;;;18.57;53.50
51926;BME280;37952;51.938;15.480;2023-09-30T13:04:24;100603.48;;;18.55;53.14
51926;BME280;37952;51.938;15.480;2023-09-30T13:07:28;100606.44;;;18.56;52.69
51926;BME280;37952;51.938;15.480;2023-09-30T13:10:30;100601.98;;;18.65;52.65
51926;BME280;37952;51.938;15.480;2023-09-30T13:13:33;100610.88;;;18.70;51.23
51926;BME280;37952;51.938;15.480;2023-09-30T13:16:38;100611.13;;;18.62;51.29
51926;BME280;37952;51.938;15.480;2023-09-30T13:19:41;100604.20;;;18.57;51.26
51926;BME280;37952;51.938;15.480;2023-09-30T13:22:44;100617.09;;;18.39;51.48
51926;BME280;37952;51.938;15.480;2023-09-30T13:25:48;100607.65;;;18.23;51.77
51926;BME280;37952;51.938;15.480;2023-09-30T13:28:51;100610.79;;;18.17;51.74
51926;BME280;37952;51.938;15.480;2023-09-30T13:31:54;100601.27;;;18.04;52.46
51926;BME280;37952;51.938;15.480;2023-09-30T13:34:57;100600.82;;;18.02;53.10
51926;BME280;37952;51.938;15.480;2023-09-30T13:38:00;100605.86;;;18.02;53.54
51926;BME280;37952;51.938;15.480;2023-09-30T13:41:03;100606.58;;;17.93;53.10
51926;BME280;37952;51.938;15.480;2023-09-30T13:44:06;100597.05;;;17.94;52.96
51926;BME280;37952;51.938;15.480;2023-09-30T13:47:09;100594.00;;;18.05;52.99
51926;BME280;37952;51.938;15.480;2023-09-30T13:50:12;100584.62;;;18.19;52.73
51926;BME280;37952;51.938;15.480;2023-09-30T13:53:15;100601.39;;;18.25;51.65
51926;BME280;37952;51.938;15.480;2023-09-30T13:56:19;100610.42;;;18.03;51.24
51926;BME280;37952;51.938;15.480;2023-09-30T13:59:21;100605.23;;;17.94;51.69
51926;BME280;37952;51.938;15.480;2023-09-30T14:02:24;100606.92;;;17.81;51.49
51926;BME280;37952;51.938;15.480;2023-09-30T14:05:28;100607.09;;;17.74;52.06
51926;BME280;37952;51.938;15.480;2023-09-30T14:08:31;100600.58;;;17.71;52.18
51926;BME280;37952;51.938;15.480;2023-09-30T14:11:34;100598.80;;;17.73;52.30
51926;BME280;37952;51.938;15.480;2023-09-30T14:14:36;100590.63;;;17.87;52.85
51926;BME280;37952;51.938;15.480;2023-09-30T14:17:39;100588.09;;;18.11;52.92
51926;BME280;37952;51.938;15.480;2023-09-30T14:20:42;100579.86;;;18.29;52.49
51926;BME280;37952;51.938;15.480;2023-09-30T14:23:45;100580.70;;;18.39;51.93
51926;BME280;37952;51.938;15.480;2023-09-30T14:26:48;100580.92;;;18.51;52.50
51926;BME280;37952;51.938;15.480;2023-09-30T14:29:51;100584.15;;;18.60;51.67
51926;BME280;37952;51.938;15.480;2023-09-30T14:32:53;100578.95;;;18.63;50.82
51926;BME280;37952;51.938;15.480;2023-09-30T14:35:57;100580.71;;;18.72;51.55
51926;BME280;37952;51.938;15.480;2023-09-30T14:39:02;100582.08;;;18.77;50.91
51926;BME280;37952;51.938;15.480;2023-09-30T14:42:16;100582.73;;;18.73;50.70
51926;BME280;37952;51.938;15.480;2023-09-30T14:45:19;100584.38;;;18.71;50.67
51926;BME280;37952;51.938;15.480;2023-09-30T14:48:24;100590.09;;;18.77;50.99
51926;BME280;37952;51.938;15.480;2023-09-30T14:51:27;100590.27;;;18.79;50.70
51926;BME280;37952;51.938;15.480;2023-09-30T14:54:31;100589.81;;;18.76;50.23
51926;BME280;37952;51.938;15.480;2023-09-30T14:57:34;100581.77;;;18.70;50.36
51926;BME280;37952;51.938;15.480;2023-09-30T15:00:37;100581.45;;;18.67;50.18
51926;BME280;37952;51.938;15.480;2023-09-30T15:03:40;100585.23;;;18.60;49.92
51926;BME280;37952;51.938;15.480;2023-09-30T15:06:44;100579.96;;;18.59;50.36
51926;BME280;37952;51.938;15.480;2023-09-30T15:09:48;100585.11;;;18.60;50.75
51926;BME280;37952;51.938;15.480;2023-09-30T15:12:52;100585.21;;;18.61;50.79
51926;BME280;37952;51.938;15.480;2023-09-30T15:15:55;100583.28;;;18.66;51.19
51926;BME280;37952;51.938;15.480;2023-09-30T15:18:58;100584.14;;;18.69;50.95
51926;BME280;37952;51.938;15.480;2023-09-30T15:22:02;100581.29;;;18.65;50.95
51926;BME280;37952;51.938;15.480;2023-09-30T15:25:05;100584.83;;;18.68;51.31
51926;BME280;37952;51.938;15.480;2023-09-30T15:28:09;100588.19;;;18.63;51.13
51926;BME280;37952;51.938;15.480;2023-09-30T15:31:11;100590.73;;;18.61;51.02
51926;BME280;37952;51.938;15.480;2023-09-30T15:34:15;100594.42;;;18.52;51.22
51926;BME280;37952;51.938;15.480;2023-09-30T15:37:18;100594.73;;;18.35;50.77
51926;BME280;37952;51.938;15.480;2023-09-30T15:40:20;100597.98;;;18.25;51.23
51926;BME280;37952;51.938;15.480;2023-09-30T15:43:24;100595.71;;;18.20;51.51
51926;BME280;37952;51.938;15.480;2023-09-30T15:46:27;100599.94;;;18.14;51.55
51926;BME280;37952;51.938;15.480;2023-09-30T15:49:30;100599.07;;;18.09;52.03
51926;BME280;37952;51.938;15.480;2023-09-30T15:52:32;100593.38;;;18.04;52.44
51926;BME280;37952;51.938;15.480;2023-09-30T15:55:35;100594.88;;;17.96;52.17